sensor_id;sensor_type;location;lat;lon;timestamp;P1;durP1;ratioP1;P2;durP2;ratioP2
28447;SDS011;15675;52.870;-1.416;2022-10-31T00:01:55;24.45;;;3.17;;
28447;SDS011;15675;52.870;-1.416;2022-10-31T00:04:21;23.55;;;3.80;;
28447;SDS011;15675;52.870;-1.416;2022-10-31T00:06:46;28.23;;;3.78;;
28447;SDS011;15675;52.870;-1.416;2022-10-31T00:09:12;19.40;;;3.10;;
28447;SDS011;15675;52.870;-1.416;2022-10-31T00:11:37;29.67;;;4.10;;
28447;SDS011;15675;52.870;-1.416;2022-10-31T00:14:03;31.25;;;4.05;;
28447;SDS011;15675;52.870;-1.416;2022-10-31T00:16:29;26.02;;;4.18;;
28447;SDS011;15675;52.870;-1.416;2022-10-31T00:18:56;25.88;;;3.78;;
28447;SDS011;15675;52.870;-1.416;2022-10-31T00:21:23;25.70;;;4.63;;
28447;SDS011;15675;52.870;-1.416;2022-10-31T00:23:50;21.10;;;3.92;;
28447;SDS011;15675;52.870;-1.416;2022-10-31T00:26:15;22.63;;;3.78;;
28447;SDS011;15675;52.870;-1.416;2022-10-31T00:28:41;27.92;;;4.60;;
28447;SDS011;15675;52.870;-1.416;2022-10-31T00:31:08;35.00;;;4.30;;
28447;SDS011;15675;52.870;-1.416;2022-10-31T00:33:35;33.72;;;4.45;;
28447;SDS011;15675;52.870;-1.416;2022-10-31T00:36:03;25.10;;;4.25;;
28447;SDS011;15675;52.870;-1.416;2022-10-31T00:38:29;31.95;;;4.68;;
28447;SDS011;15675;52.870;-1.416;2022-10-31T00:40:55;31.88;;;4.68;;
28447;SDS011;15675;52.870;-1.416;2022-10-31T00:43:20;30.50;;;4.65;;
28447;SDS011;15675;52.870;-1.416;2022-10-31T00:45:46;27.63;;;4.00;;
28447;SDS011;15675;52.870;-1.416;2022-10-31T00:48:11;45.47;;;4.78;;
28447;SDS011;15675;52.870;-1.416;2022-10-31T00:50:37;22.05;;;4.20;;
28447;SDS011;15675;52.870;-1.416;2022-10-31T00:53:04;25.70;;;4.30;;
28447;SDS011;15675;52.870;-1.416;2022-10-31T00:55:29;30.17;;;4.20;;
28447;SDS011;15675;52.870;-1.416;2022-10-31T00:57:55;41.30;;;4.60;;
28447;SDS011;15675;52.870;-1.416;2022-10-31T01:00:20;29.55;;;5.10;;
28447;SDS011;15675;52.870;-1.416;2022-10-31T01:02:46;25.05;;;3.60;;
28447;SDS011;15675;52.870;-1.416;2022-10-31T01:05:12;26.63;;;4.90;;
28447;SDS011;15675;52.870;-1.416;2022-10-31T01:07:38;26.83;;;4.25;;
28447;SDS011;15675;52.870;-1.416;2022-10-31T01:10:05;27.90;;;4.38;;
28447;SDS011;15675;52.870;-1.416;2022-10-31T01:12:38;25.30;;;4.07;;
28447;SDS011;15675;52.870;-1.416;2022-10-31T01:15:05;25.48;;;3.28;;
28447;SDS011;15675;52.870;-1.416;2022-10-31T01:17:32;39.65;;;4.80;;
28447;SDS011;15675;52.870;-1.416;2022-10-31T01:19:59;29.88;;;4.75;;
28447;SDS011;15675;52.870;-1.416;2022-10-31T01:22:24;29.38;;;3.53;;
28447;SDS011;15675;52.870;-1.416;2022-10-31T01:24:50;25.75;;;4.22;;
28447;SDS011;15675;52.870;-1.416;2022-10-31T01:27:15;37.72;;;6.00;;
28447;SDS011;15675;52.870;-1.416;2022-10-31T01:29:41;17.00;;;3.55;;
28447;SDS011;15675;52.870;-1.416;2022-10-31T01:32:06;27.67;;;3.45;;
28447;SDS011;15675;52.870;-1.416;2022-10-31T01:34:32;34.70;;;4.45;;
28447;SDS011;15675;52.870;-1.416;2022-10-31T01:36:57;32.42;;;4.88;;
28447;SDS011;15675;52.870;-1.416;2022-10-31T01:39:23;32.53;;;4.22;;
28447;SDS011;15675;52.870;-1.416;2022-10-31T01:41:49;23.35;;;3.47;;
28447;SDS011;15675;52.870;-1.416;2022-10-31T01:46:49;26.35;;;3.40;;
28447;SDS011;15675;52.870;-1.416;2022-10-31T01:49:23;29.02;;;4.25;;
28447;SDS011;15675;52.870;-1.416;2022-10-31T01:51:56;25.88;;;3.65;;
28447;SDS011;15675;52.870;-1.416;2022-10-31T01:54:27;30.70;;;4.40;;
28447;SDS011;15675;52.870;-1.416;2022-10-31T01:56:59;38.47;;;5.17;;
28447;SDS011;15675;52.870;-1.416;2022-10-31T01:59:27;27.50;;;3.70;;
28447;SDS011;15675;52.870;-1.416;2022-10-31T02:01:55;31.35;;;4.03;;
28447;SDS011;15675;52.870;-1.416;2022-10-31T02:04:21;39.13;;;4.43;;
28447;SDS011;15675;52.870;-1.416;2022-10-31T02:06:51;31.70;;;4.50;;
28447;SDS011;15675;52.870;-1.416;2022-10-31T02:09:17;25.83;;;3.60;;
28447;SDS011;15675;52.870;-1.416;2022-10-31T02:11:49;26.13;;;4.10;;
28447;SDS011;15675;52.870;-1.416;2022-10-31T02:14:17;29.50;;;3.65;;
28447;SDS011;15675;52.870;-1.416;2022-10-31T02:16:43;27.35;;;4.53;;
28447;SDS011;15675;52.870;-1.416;2022-10-31T02:19:08;25.58;;;3.20;;
28447;SDS011;15675;52.870;-1.416;2022-10-31T02:21:42;24.88;;;4.43;;
28447;SDS011;15675;52.870;-1.416;2022-10-31T02:31:58;39.40;;;4.15;;
28447;SDS011;15675;52.870;-1.416;2022-10-31T02:34:33;33.42;;;3.83;;
28447;SDS011;15675;52.870;-1.416;2022-10-31T02:42:29;30.42;;;4.00;;
28447;SDS011;15675;52.870;-1.416;2022-10-31T02:47:26;32.13;;;4.03;;
28447;SDS011;15675;52.870;-1.416;2022-10-31T02:49:59;26.60;;;3.85;;
28447;SDS011;15675;52.870;-1.416;2022-10-31T02:52:32;27.15;;;3.90;;
28447;SDS011;15675;52.870;-1.416;2022-10-31T02:54:58;22.60;;;3.58;;
28447;SDS011;15675;52.870;-1.416;2022-10-31T02:57:34;33.67;;;4.55;;
28447;SDS011;15675;52.870;-1.416;2022-10-31T03:00:04;34.58;;;3.97;;
28447;SDS011;15675;52.870;-1.416;2022-10-31T03:10:47;20.40;;;3.35;;
28447;SDS011;15675;52.870;-1.416;2022-10-31T03:15:56;28.08;;;3.67;;
28447;SDS011;15675;52.870;-1.416;2022-10-31T03:21:44;28.27;;;3.67;;
28447;SDS011;15675;52.870;-1.416;2022-10-31T03:24:12;26.95;;;3.58;;
28447;SDS011;15675;52.870;-1.416;2022-10-31T03:26:41;27.48;;;3.53;;
28447;SDS011;15675;52.870;-1.416;2022-10-31T03:29:14;27.35;;;3.75;;
28447;SDS011;15675;52.870;-1.416;2022-10-31T03:31:43;28.65;;;4.35;;
28447;SDS011;15675;52.870;-1.416;2022-10-31T03:34:13;26.83;;;3.60;;
28447;SDS011;15675;52.870;-1.416;2022-10-31T03:36:41;39.63;;;4.95;;
28447;SDS011;15675;52.870;-1.416;2022-10-31T03:39:09;35.38;;;4.65;;
28447;SDS011;15675;52.870;-1.416;2022-10-31T03:41:39;35.13;;;4.15;;
28447;SDS011;15675;52.870;-1.416;2022-10-31T03:44:09;28.27;;;4.22;;
28447;SDS011;15675;52.870;-1.416;2022-10-31T03:46:40;23.33;;;3.13;;
28447;SDS011;15675;52.870;-1.416;2022-10-31T03:49:07;27.70;;;3.45;;
28447;SDS011;15675;52.870;-1.416;2022-10-31T03:54:41;28.15;;;3.40;;
28447;SDS011;15675;52.870;-1.416;2022-10-31T03:57:14;27.98;;;3.67;;
28447;SDS011;15675;52.870;-1.416;2022-10-31T03:59:47;28.95;;;4.03;;
28447;SDS011;15675;52.870;-1.416;2022-10-31T04:02:28;38.30;;;3.95;;
28447;SDS011;15675;52.870;-1.416;2022-10-31T04:04:57;29.27;;;3.70;;
28447;SDS011;15675;52.870;-1.416;2022-10-31T04:07:25;24.38;;;3.53;;
28447;SDS011;15675;52.870;-1.416;2022-10-31T04:09:53;24.30;;;3.42;;
28447;SDS011;15675;52.870;-1.416;2022-10-31T04:12:21;31.83;;;3.90;;
28447;SDS011;15675;52.870;-1.416;2022-10-31T04:14:49;26.75;;;3.17;;
28447;SDS011;15675;52.870;-1.416;2022-10-31T04:17:18;28.15;;;3.65;;
28447;SDS011;15675;52.870;-1.416;2022-10-31T04:19:45;30.77;;;3.42;;
28447;SDS011;15675;52.870;-1.416;2022-10-31T04:22:11;26.40;;;3.40;;
28447;SDS011;15675;52.870;-1.416;2022-10-31T04:24:37;21.15;;;3.50;;
28447;SDS011;15675;52.870;-1.416;2022-10-31T04:27:05;25.25;;;4.38;;
28447;SDS011;15675;52.870;-1.416;2022-10-31T04:29:31;29.20;;;4.20;;
28447;SDS011;15675;52.870;-1.416;2022-10-31T04:31:56;28.65;;;3.45;;
28447;SDS011;15675;52.870;-1.416;2022-10-31T04:34:22;28.75;;;3.55;;
28447;SDS011;15675;52.870;-1.416;2022-10-31T04:36:47;29.75;;;5.05;;
28447;SDS011;15675;52.870;-1.416;2022-10-31T04:39:12;26.58;;;3.20;;
28447;SDS011;15675;52.870;-1.416;2022-10-31T04:41:38;30.73;;;3.63;;
28447;SDS011;15675;52.870;-1.416;2022-10-31T04:44:04;37.28;;;3.78;;
28447;SDS011;15675;52.870;-1.416;2022-10-31T04:46:29;33.10;;;4.13;;
28447;SDS011;15675;52.870;-1.416;2022-10-31T04:48:55;37.10;;;4.18;;
28447;SDS011;15675;52.870;-1.416;2022-10-31T04:51:21;27.17;;;3.20;;
28447;SDS011;15675;52.870;-1.416;2022-10-31T04:53:47;35.65;;;3.05;;
28447;SDS011;15675;52.870;-1.416;2022-10-31T04:56:12;28.38;;;3.67;;
28447;SDS011;15675;52.870;-1.416;2022-10-31T04:58:38;22.88;;;3.45;;
28447;SDS011;15675;52.870;-1.416;2022-10-31T05:01:03;29.20;;;3.88;;
28447;SDS011;15675;52.870;-1.416;2022-10-31T05:03:29;24.25;;;3.25;;
28447;SDS011;15675;52.870;-1.416;2022-10-31T05:05:54;23.50;;;3.40;;
28447;SDS011;15675;52.870;-1.416;2022-10-31T05:08:20;28.40;;;3.53;;
28447;SDS011;15675;52.870;-1.416;2022-10-31T05:10:45;27.33;;;3.22;;
28447;SDS011;15675;52.870;-1.416;2022-10-31T05:13:11;22.63;;;3.50;;
28447;SDS011;15675;52.870;-1.416;2022-10-31T05:15:36;21.00;;;2.33;;
28447;SDS011;15675;52.870;-1.416;2022-10-31T05:18:02;25.00;;;4.03;;
28447;SDS011;15675;52.870;-1.416;2022-10-31T05:20:28;24.70;;;3.72;;
28447;SDS011;15675;52.870;-1.416;2022-10-31T05:22:55;29.17;;;4.47;;
28447;SDS011;15675;52.870;-1.416;2022-10-31T05:25:22;31.83;;;3.53;;
28447;SDS011;15675;52.870;-1.416;2022-10-31T05:27:51;32.17;;;4.07;;
28447;SDS011;15675;52.870;-1.416;2022-10-31T05:30:19;25.30;;;4.00;;
28447;SDS011;15675;52.870;-1.416;2022-10-31T05:32:47;25.27;;;3.00;;
28447;SDS011;15675;52.870;-1.416;2022-10-31T05:35:19;37.15;;;3.58;;
28447;SDS011;15675;52.870;-1.416;2022-10-31T05:37:46;29.20;;;3.58;;
28447;SDS011;15675;52.870;-1.416;2022-10-31T05:40:12;28.67;;;3.38;;
28447;SDS011;15675;52.870;-1.416;2022-10-31T05:42:39;25.80;;;3.58;;
28447;SDS011;15675;52.870;-1.416;2022-10-31T05:45:06;20.15;;;3.20;;
28447;SDS011;15675;52.870;-1.416;2022-10-31T05:47:33;25.58;;;3.40;;
28447;SDS011;15675;52.870;-1.416;2022-10-31T05:49:58;29.90;;;3.28;;
28447;SDS011;15675;52.870;-1.416;2022-10-31T05:52:24;25.67;;;3.20;;
28447;SDS011;15675;52.870;-1.416;2022-10-31T05:54:49;23.55;;;4.07;;
28447;SDS011;15675;52.870;-1.416;2022-10-31T05:57:15;34.83;;;4.20;;
28447;SDS011;15675;52.870;-1.416;2022-10-31T05:59:40;28.15;;;3.33;;
28447;SDS011;15675;52.870;-1.416;2022-10-31T06:02:06;27.48;;;3.78;;
28447;SDS011;15675;52.870;-1.416;2022-10-31T06:04:31;22.33;;;2.85;;
28447;SDS011;15675;52.870;-1.416;2022-10-31T06:06:57;23.77;;;2.47;;
28447;SDS011;15675;52.870;-1.416;2022-10-31T06:09:23;21.90;;;2.83;;
28447;SDS011;15675;52.870;-1.416;2022-10-31T06:11:48;25.15;;;3.63;;
28447;SDS011;15675;52.870;-1.416;2022-10-31T06:14:13;30.48;;;3.40;;
28447;SDS011;15675;52.870;-1.416;2022-10-31T06:16:39;28.77;;;3.25;;
28447;SDS011;15675;52.870;-1.416;2022-10-31T06:19:05;22.20;;;2.97;;
28447;SDS011;15675;52.870;-1.416;2022-10-31T06:21:30;21.33;;;3.50;;
28447;SDS011;15675;52.870;-1.416;2022-10-31T06:23:56;25.83;;;3.30;;
28447;SDS011;15675;52.870;-1.416;2022-10-31T06:26:22;24.25;;;3.40;;
28447;SDS011;15675;52.870;-1.416;2022-10-31T06:28:47;26.60;;;3.47;;
28447;SDS011;15675;52.870;-1.416;2022-10-31T06:31:13;21.35;;;3.10;;
28447;SDS011;15675;52.870;-1.416;2022-10-31T06:33:40;20.33;;;3.03;;
28447;SDS011;15675;52.870;-1.416;2022-10-31T06:36:06;22.30;;;3.70;;
28447;SDS011;15675;52.870;-1.416;2022-10-31T06:38:32;27.92;;;3.40;;
28447;SDS011;15675;52.870;-1.416;2022-10-31T06:41:01;20.70;;;2.88;;
28447;SDS011;15675;52.870;-1.416;2022-10-31T06:43:28;35.78;;;3.90;;
28447;SDS011;15675;52.870;-1.416;2022-10-31T06:45:54;25.10;;;3.10;;
28447;SDS011;15675;52.870;-1.416;2022-10-31T06:48:19;18.90;;;2.90;;
28447;SDS011;15675;52.870;-1.416;2022-10-31T06:50:45;27.77;;;3.67;;
28447;SDS011;15675;52.870;-1.416;2022-10-31T06:53:10;16.40;;;3.15;;
28447;SDS011;15675;52.870;-1.416;2022-10-31T06:55:36;22.80;;;3.33;;
28447;SDS011;15675;52.870;-1.416;2022-10-31T06:58:01;20.50;;;2.90;;
28447;SDS011;15675;52.870;-1.416;2022-10-31T07:00:27;25.55;;;4.40;;
28447;SDS011;15675;52.870;-1.416;2022-10-31T07:05:19;23.27;;;3.85;;
28447;SDS011;15675;52.870;-1.416;2022-10-31T07:07:45;19.08;;;3.25;;
28447;SDS011;15675;52.870;-1.416;2022-10-31T07:10:10;20.33;;;3.58;;
28447;SDS011;15675;52.870;-1.416;2022-10-31T07:12:36;29.38;;;3.85;;
28447;SDS011;15675;52.870;-1.416;2022-10-31T07:15:01;21.95;;;3.55;;
28447;SDS011;15675;52.870;-1.416;2022-10-31T07:17:27;22.40;;;4.22;;
28447;SDS011;15675;52.870;-1.416;2022-10-31T07:19:52;23.88;;;3.65;;
28447;SDS011;15675;52.870;-1.416;2022-10-31T07:22:18;26.73;;;3.78;;
28447;SDS011;15675;52.870;-1.416;2022-10-31T07:24:43;32.33;;;4.18;;
28447;SDS011;15675;52.870;-1.416;2022-10-31T07:27:09;34.78;;;4.47;;
28447;SDS011;15675;52.870;-1.416;2022-10-31T07:29:34;30.80;;;4.20;;
28447;SDS011;15675;52.870;-1.416;2022-10-31T07:32:00;28.00;;;3.72;;
28447;SDS011;15675;52.870;-1.416;2022-10-31T07:34:25;36.53;;;3.95;;
28447;SDS011;15675;52.870;-1.416;2022-10-31T07:36:51;23.35;;;4.00;;
28447;SDS011;15675;52.870;-1.416;2022-10-31T07:39:17;22.05;;;3.25;;
28447;SDS011;15675;52.870;-1.416;2022-10-31T07:41:42;23.20;;;5.20;;
28447;SDS011;15675;52.870;-1.416;2022-10-31T07:44:07;24.50;;;3.47;;
28447;SDS011;15675;52.870;-1.416;2022-10-31T07:46:33;26.55;;;3.88;;
28447;SDS011;15675;52.870;-1.416;2022-10-31T07:48:58;24.63;;;3.90;;
28447;SDS011;15675;52.870;-1.416;2022-10-31T07:51:24;22.13;;;3.15;;
28447;SDS011;15675;52.870;-1.416;2022-10-31T07:53:50;23.38;;;3.53;;
28447;SDS011;15675;52.870;-1.416;2022-10-31T07:56:15;22.30;;;3.78;;
28447;SDS011;15675;52.870;-1.416;2022-10-31T07:58:41;22.88;;;3.53;;
28447;SDS011;15675;52.870;-1.416;2022-10-31T08:01:06;21.08;;;3.10;;
28447;SDS011;15675;52.870;-1.416;2022-10-31T08:03:32;19.13;;;3.38;;
28447;SDS011;15675;52.870;-1.416;2022-10-31T08:05:57;21.95;;;3.47;;
28447;SDS011;15675;52.870;-1.416;2022-10-31T08:08:22;21.88;;;4.32;;
28447;SDS011;15675;52.870;-1.416;2022-10-31T08:10:49;18.83;;;3.15;;
28447;SDS011;15675;52.870;-1.416;2022-10-31T08:13:14;20.63;;;3.28;;
28447;SDS011;15675;52.870;-1.416;2022-10-31T08:15:40;21.08;;;3.80;;
28447;SDS011;15675;52.870;-1.416;2022-10-31T08:18:10;14.90;;;3.00;;
28447;SDS011;15675;52.870;-1.416;2022-10-31T08:20:38;24.13;;;3.60;;
28447;SDS011;15675;52.870;-1.416;2022-10-31T08:23:04;23.15;;;3.38;;
28447;SDS011;15675;52.870;-1.416;2022-10-31T08:25:31;24.40;;;3.95;;
28447;SDS011;15675;52.870;-1.416;2022-10-31T08:27:58;21.85;;;3.58;;
28447;SDS011;15675;52.870;-1.416;2022-10-31T08:30:25;18.83;;;3.38;;
28447;SDS011;15675;52.870;-1.416;2022-10-31T08:35:25;12.40;;;2.92;;
28447;SDS011;15675;52.870;-1.416;2022-10-31T08:37:57;19.70;;;3.30;;
28447;SDS011;15675;52.870;-1.416;2022-10-31T08:40:23;17.85;;;3.72;;
28447;SDS011;15675;52.870;-1.416;2022-10-31T08:42:59;23.17;;;3.25;;
28447;SDS011;15675;52.870;-1.416;2022-10-31T08:45:29;21.08;;;3.75;;
28447;SDS011;15675;52.870;-1.416;2022-10-31T08:47:57;22.27;;;3.53;;
28447;SDS011;15675;52.870;-1.416;2022-10-31T08:50:24;17.77;;;3.20;;
28447;SDS011;15675;52.870;-1.416;2022-10-31T08:52:50;16.33;;;3.45;;
28447;SDS011;15675;52.870;-1.416;2022-10-31T08:55:15;23.25;;;3.80;;
28447;SDS011;15675;52.870;-1.416;2022-10-31T08:57:41;15.55;;;3.20;;
28447;SDS011;15675;52.870;-1.416;2022-10-31T09:00:07;15.43;;;2.80;;
28447;SDS011;15675;52.870;-1.416;2022-10-31T09:02:33;13.20;;;3.17;;
28447;SDS011;15675;52.870;-1.416;2022-10-31T09:04:59;18.13;;;3.45;;
28447;SDS011;15675;52.870;-1.416;2022-10-31T09:07:24;19.42;;;2.97;;
28447;SDS011;15675;52.870;-1.416;2022-10-31T09:09:50;17.50;;;3.13;;
28447;SDS011;15675;52.870;-1.416;2022-10-31T09:12:16;22.55;;;3.88;;
28447;SDS011;15675;52.870;-1.416;2022-10-31T09:14:41;19.55;;;3.30;;
28447;SDS011;15675;52.870;-1.416;2022-10-31T09:17:07;26.42;;;3.15;;
28447;SDS011;15675;52.870;-1.416;2022-10-31T09:19:32;19.30;;;3.33;;
28447;SDS011;15675;52.870;-1.416;2022-10-31T09:21:58;26.30;;;3.95;;
28447;SDS011;15675;52.870;-1.416;2022-10-31T09:24:23;16.48;;;2.80;;
28447;SDS011;15675;52.870;-1.416;2022-10-31T09:26:49;22.33;;;3.50;;
28447;SDS011;15675;52.870;-1.416;2022-10-31T09:29:14;20.80;;;3.28;;
28447;SDS011;15675;52.870;-1.416;2022-10-31T09:31:40;21.38;;;2.92;;
28447;SDS011;15675;52.870;-1.416;2022-10-31T09:34:05;20.13;;;3.33;;
28447;SDS011;15675;52.870;-1.416;2022-10-31T09:36:31;24.48;;;3.63;;
28447;SDS011;15675;52.870;-1.416;2022-10-31T09:38:56;17.55;;;2.65;;
28447;SDS011;15675;52.870;-1.416;2022-10-31T09:52:09;14.63;;;2.70;;
28447;SDS011;15675;52.870;-1.416;2022-10-31T09:54:55;18.20;;;2.95;;
28447;SDS011;15675;52.870;-1.416;2022-10-31T09:57:29;28.92;;;4.15;;
28447;SDS011;15675;52.870;-1.416;2022-10-31T10:02:37;16.48;;;2.67;;
28447;SDS011;15675;52.870;-1.416;2022-10-31T10:05:18;16.08;;;2.80;;
28447;SDS011;15675;52.870;-1.416;2022-10-31T10:10:16;14.75;;;2.90;;
28447;SDS011;15675;52.870;-1.416;2022-10-31T10:12:57;14.95;;;2.40;;
28447;SDS011;15675;52.870;-1.416;2022-10-31T10:15:41;20.92;;;3.13;;
28447;SDS011;15675;52.870;-1.416;2022-10-31T10:18:21;14.20;;;2.95;;
28447;SDS011;15675;52.870;-1.416;2022-10-31T10:30:43;17.65;;;2.90;;
28447;SDS011;15675;52.870;-1.416;2022-10-31T10:32:57;22.65;;;4.13;;
28447;SDS011;15675;52.870;-1.416;2022-10-31T10:35:45;23.45;;;3.75;;
28447;SDS011;15675;52.870;-1.416;2022-10-31T10:38:14;20.65;;;3.47;;
28447;SDS011;15675;52.870;-1.416;2022-10-31T10:40:45;16.73;;;3.25;;
28447;SDS011;15675;52.870;-1.416;2022-10-31T10:43:18;16.35;;;2.92;;
28447;SDS011;15675;52.870;-1.416;2022-10-31T10:46:05;13.35;;;2.67;;
28447;SDS011;15675;52.870;-1.416;2022-10-31T10:49:19;16.95;;;3.45;;
28447;SDS011;15675;52.870;-1.416;2022-10-31T10:51:59;18.85;;;3.38;;
28447;SDS011;15675;52.870;-1.416;2022-10-31T11:02:55;17.13;;;3.65;;
28447;SDS011;15675;52.870;-1.416;2022-10-31T11:05:24;13.93;;;2.60;;
28447;SDS011;15675;52.870;-1.416;2022-10-31T11:07:55;21.52;;;3.10;;
28447;SDS011;15675;52.870;-1.416;2022-10-31T11:10:20;14.02;;;3.47;;
28447;SDS011;15675;52.870;-1.416;2022-10-31T11:16:04;19.48;;;2.88;;
28447;SDS011;15675;52.870;-1.416;2022-10-31T11:18:37;13.93;;;2.40;;
28447;SDS011;15675;52.870;-1.416;2022-10-31T11:21:05;9.50;;;2.65;;
28447;SDS011;15675;52.870;-1.416;2022-10-31T11:23:31;13.95;;;2.60;;
28447;SDS011;15675;52.870;-1.416;2022-10-31T11:28:28;12.35;;;2.80;;
28447;SDS011;15675;52.870;-1.416;2022-10-31T11:30:58;13.23;;;2.90;;
28447;SDS011;15675;52.870;-1.416;2022-10-31T11:33:27;12.85;;;2.35;;
28447;SDS011;15675;52.870;-1.416;2022-10-31T11:36:01;15.48;;;3.08;;
28447;SDS011;15675;52.870;-1.416;2022-10-31T11:38:40;13.40;;;2.58;;
28447;SDS011;15675;52.870;-1.416;2022-10-31T11:41:12;13.68;;;2.63;;
28447;SDS011;15675;52.870;-1.416;2022-10-31T11:43:45;14.07;;;3.28;;
28447;SDS011;15675;52.870;-1.416;2022-10-31T11:46:17;18.13;;;2.83;;
28447;SDS011;15675;52.870;-1.416;2022-10-31T11:48:47;11.80;;;2.25;;
28447;SDS011;15675;52.870;-1.416;2022-10-31T11:51:25;16.08;;;2.70;;
28447;SDS011;15675;52.870;-1.416;2022-10-31T11:53:54;14.18;;;2.28;;
28447;SDS011;15675;52.870;-1.416;2022-10-31T11:56:22;10.38;;;2.53;;
28447;SDS011;15675;52.870;-1.416;2022-10-31T11:58:59;17.27;;;2.65;;
28447;SDS011;15675;52.870;-1.416;2022-10-31T12:01:29;12.93;;;2.47;;
28447;SDS011;15675;52.870;-1.416;2022-10-31T12:04:11;16.52;;;2.50;;
28447;SDS011;15675;52.870;-1.416;2022-10-31T12:06:44;18.73;;;2.47;;
28447;SDS011;15675;52.870;-1.416;2022-10-31T12:14:35;20.23;;;2.58;;
28447;SDS011;15675;52.870;-1.416;2022-10-31T12:19:44;12.82;;;2.67;;
28447;SDS011;15675;52.870;-1.416;2022-10-31T12:28:20;11.82;;;2.40;;
28447;SDS011;15675;52.870;-1.416;2022-10-31T12:30:53;13.80;;;2.83;;
28447;SDS011;15675;52.870;-1.416;2022-10-31T12:44:28;14.20;;;2.75;;
28447;SDS011;15675;52.870;-1.416;2022-10-31T12:47:03;10.50;;;2.38;;
28447;SDS011;15675;52.870;-1.416;2022-10-31T12:49:55;10.73;;;2.30;;
28447;SDS011;15675;52.870;-1.416;2022-10-31T12:52:46;23.83;;;3.17;;
28447;SDS011;15675;52.870;-1.416;2022-10-31T12:58:07;13.50;;;2.45;;
28447;SDS011;15675;52.870;-1.416;2022-10-31T13:00:40;18.52;;;2.75;;
28447;SDS011;15675;52.870;-1.416;2022-10-31T13:05:50;17.40;;;2.60;;
28447;SDS011;15675;52.870;-1.416;2022-10-31T13:08:30;17.20;;;2.75;;
28447;SDS011;15675;52.870;-1.416;2022-10-31T13:13:55;14.63;;;2.25;;
28447;SDS011;15675;52.870;-1.416;2022-10-31T13:16:25;17.58;;;2.42;;
28447;SDS011;15675;52.870;-1.416;2022-10-31T13:19:12;11.02;;;1.88;;
28447;SDS011;15675;52.870;-1.416;2022-10-31T13:24:19;9.32;;;1.52;;
28447;SDS011;15675;52.870;-1.416;2022-10-31T13:26:50;14.68;;;2.75;;
28447;SDS011;15675;52.870;-1.416;2022-10-31T13:29:21;16.23;;;2.88;;
28447;SDS011;15675;52.870;-1.416;2022-10-31T13:31:48;12.93;;;2.10;;
28447;SDS011;15675;52.870;-1.416;2022-10-31T13:34:24;12.82;;;2.28;;
28447;SDS011;15675;52.870;-1.416;2022-10-31T13:44:25;11.05;;;2.03;;
28447;SDS011;15675;52.870;-1.416;2022-10-31T13:46:53;15.25;;;2.38;;
28447;SDS011;15675;52.870;-1.416;2022-10-31T13:54:51;9.93;;;1.50;;
28447;SDS011;15675;52.870;-1.416;2022-10-31T14:02:51;8.45;;;1.48;;
28447;SDS011;15675;52.870;-1.416;2022-10-31T14:05:22;10.68;;;1.75;;
28447;SDS011;15675;52.870;-1.416;2022-10-31T14:07:48;11.82;;;1.77;;
28447;SDS011;15675;52.870;-1.416;2022-10-31T14:13:08;14.48;;;2.05;;
28447;SDS011;15675;52.870;-1.416;2022-10-31T14:15:38;8.82;;;1.98;;
28447;SDS011;15675;52.870;-1.416;2022-10-31T14:18:25;6.15;;;1.60;;
28447;SDS011;15675;52.870;-1.416;2022-10-31T14:20:55;8.52;;;1.80;;
28447;SDS011;15675;52.870;-1.416;2022-10-31T14:28:48;6.40;;;1.45;;
28447;SDS011;15675;52.870;-1.416;2022-10-31T14:31:32;11.98;;;1.73;;
28447;SDS011;15675;52.870;-1.416;2022-10-31T14:36:54;8.43;;;1.85;;
28447;SDS011;15675;52.870;-1.416;2022-10-31T14:42:24;8.63;;;1.50;;
28447;SDS011;15675;52.870;-1.416;2022-10-31T14:53:00;7.63;;;2.25;;
28447;SDS011;15675;52.870;-1.416;2022-10-31T14:55:28;7.18;;;1.75;;
28447;SDS011;15675;52.870;-1.416;2022-10-31T14:57:56;10.25;;;1.77;;
28447;SDS011;15675;52.870;-1.416;2022-10-31T15:00:25;7.82;;;2.10;;
28447;SDS011;15675;52.870;-1.416;2022-10-31T15:05:46;7.28;;;1.48;;
28447;SDS011;15675;52.870;-1.416;2022-10-31T15:08:27;8.95;;;2.10;;
28447;SDS011;15675;52.870;-1.416;2022-10-31T15:10:57;8.93;;;1.60;;
28447;SDS011;15675;52.870;-1.416;2022-10-31T15:13:22;5.70;;;1.48;;
28447;SDS011;15675;52.870;-1.416;2022-10-31T15:15:49;10.77;;;1.88;;
28447;SDS011;15675;52.870;-1.416;2022-10-31T15:18:19;9.93;;;1.80;;
28447;SDS011;15675;52.870;-1.416;2022-10-31T15:20:47;7.32;;;1.83;;
28447;SDS011;15675;52.870;-1.416;2022-10-31T15:23:16;11.90;;;2.00;;
28447;SDS011;15675;52.870;-1.416;2022-10-31T15:25:46;11.50;;;1.30;;
28447;SDS011;15675;52.870;-1.416;2022-10-31T15:28:12;15.23;;;2.08;;
28447;SDS011;15675;52.870;-1.416;2022-10-31T15:30:53;9.20;;;1.55;;
28447;SDS011;15675;52.870;-1.416;2022-10-31T15:33:22;8.98;;;1.65;;
28447;SDS011;15675;52.870;-1.416;2022-10-31T15:35:59;6.57;;;1.90;;
28447;SDS011;15675;52.870;-1.416;2022-10-31T15:38:27;6.60;;;1.70;;
28447;SDS011;15675;52.870;-1.416;2022-10-31T15:43:32;7.25;;;1.50;;
28447;SDS011;15675;52.870;-1.416;2022-10-31T15:46:01;6.38;;;1.60;;
28447;SDS011;15675;52.870;-1.416;2022-10-31T15:48:29;13.38;;;2.00;;
28447;SDS011;15675;52.870;-1.416;2022-10-31T15:50:57;7.82;;;1.55;;
28447;SDS011;15675;52.870;-1.416;2022-10-31T15:53:25;6.88;;;2.10;;
28447;SDS011;15675;52.870;-1.416;2022-10-31T15:56:06;6.85;;;1.63;;
28447;SDS011;15675;52.870;-1.416;2022-10-31T16:03:56;8.82;;;2.60;;
28447;SDS011;15675;52.870;-1.416;2022-10-31T16:06:24;7.88;;;2.08;;
28447;SDS011;15675;52.870;-1.416;2022-10-31T16:08:50;7.20;;;2.42;;
28447;SDS011;15675;52.870;-1.416;2022-10-31T16:11:23;10.05;;;1.90;;
28447;SDS011;15675;52.870;-1.416;2022-10-31T16:13:57;10.02;;;1.95;;
28447;SDS011;15675;52.870;-1.416;2022-10-31T16:16:30;8.27;;;1.98;;
28447;SDS011;15675;52.870;-1.416;2022-10-31T16:18:57;11.43;;;2.60;;
28447;SDS011;15675;52.870;-1.416;2022-10-31T16:21:26;17.15;;;1.98;;
28447;SDS011;15675;52.870;-1.416;2022-10-31T16:23:57;9.23;;;2.00;;
28447;SDS011;15675;52.870;-1.416;2022-10-31T16:26:27;9.82;;;2.30;;
28447;SDS011;15675;52.870;-1.416;2022-10-31T16:28:54;10.50;;;2.20;;
28447;SDS011;15675;52.870;-1.416;2022-10-31T16:31:37;12.32;;;2.60;;
28447;SDS011;15675;52.870;-1.416;2022-10-31T16:34:14;6.93;;;2.10;;
28447;SDS011;15675;52.870;-1.416;2022-10-31T16:36:42;10.25;;;2.50;;
28447;SDS011;15675;52.870;-1.416;2022-10-31T16:39:08;15.13;;;3.17;;
28447;SDS011;15675;52.870;-1.416;2022-10-31T16:41:35;12.82;;;2.72;;
28447;SDS011;15675;52.870;-1.416;2022-10-31T16:44:06;13.63;;;2.65;;
28447;SDS011;15675;52.870;-1.416;2022-10-31T16:46:41;15.50;;;3.22;;
28447;SDS011;15675;52.870;-1.416;2022-10-31T16:49:08;6.63;;;2.15;;
28447;SDS011;15675;52.870;-1.416;2022-10-31T16:51:35;14.25;;;2.88;;
28447;SDS011;15675;52.870;-1.416;2022-10-31T16:54:01;14.90;;;2.40;;
28447;SDS011;15675;52.870;-1.416;2022-10-31T16:56:30;11.82;;;2.38;;
28447;SDS011;15675;52.870;-1.416;2022-10-31T16:58:57;7.70;;;2.20;;
28447;SDS011;15675;52.870;-1.416;2022-10-31T17:01:26;15.30;;;2.97;;
28447;SDS011;15675;52.870;-1.416;2022-10-31T17:03:52;14.40;;;2.38;;
28447;SDS011;15675;52.870;-1.416;2022-10-31T17:06:17;14.57;;;2.83;;
28447;SDS011;15675;52.870;-1.416;2022-10-31T17:08:43;9.50;;;2.42;;
28447;SDS011;15675;52.870;-1.416;2022-10-31T17:11:13;12.07;;;2.28;;
28447;SDS011;15675;52.870;-1.416;2022-10-31T17:13:42;15.10;;;3.05;;
28447;SDS011;15675;52.870;-1.416;2022-10-31T17:16:07;15.40;;;2.80;;
28447;SDS011;15675;52.870;-1.416;2022-10-31T17:18:33;7.28;;;2.58;;
28447;SDS011;15675;52.870;-1.416;2022-10-31T17:20:59;6.93;;;2.45;;